SWA3959 KPSP-KOAK
Flight info
| Callsign | SWA3959 |
|---|---|
| Flight time | N/A |
| Altitude | 38000 |
| Route | YUCCA1 PMD COREZ RGOOD EMZOH4 |
| Aircraft | B738/M-SDE2E3FGHIRWXY/LB1 |
Departure
| Time | N/A |
|---|---|
| Airport | Palm Springs International Airport (KPSP) |
Arrival
| Time | 2026-05-05 01:13 |
|---|---|
| Airport | San Francisco Bay Oakland International Airport (KOAK) |
| Time | Latitude | Longitude | Altitude | Speed | Heading |
|---|---|---|---|---|---|
| 2026-05-05 00:26 | 34.61868 | -117.92226 | 34644 ft | 386 kts | 266° |
| 2026-05-05 00:26 | 34.62151 | -117.95460 | 34963 ft | 384 kts | 267° |
| 2026-05-05 00:26 | 34.62433 | -117.98684 | 35295 ft | 382 kts | 267° |
| 2026-05-05 00:27 | 34.62708 | -118.01844 | 35616 ft | 380 kts | 267° |
| 2026-05-05 00:27 | 34.63151 | -118.05041 | 35857 ft | 392 kts | 278° |
| 2026-05-05 00:27 | 34.64261 | -118.08132 | 36145 ft | 409 kts | 291° |
| 2026-05-05 00:27 | 34.65975 | -118.10965 | 36431 ft | 419 kts | 298° |
| 2026-05-05 00:28 | 34.67818 | -118.13700 | 36704 ft | 419 kts | 298° |
| 2026-05-05 00:28 | 34.69674 | -118.16430 | 36975 ft | 418 kts | 299° |
| 2026-05-05 00:28 | 34.71521 | -118.19153 | 37251 ft | 417 kts | 299° |
| 2026-05-05 00:28 | 34.73357 | -118.21879 | 37532 ft | 415 kts | 299° |
| 2026-05-05 00:29 | 34.75180 | -118.24606 | 37819 ft | 413 kts | 299° |
| 2026-05-05 00:29 | 34.76960 | -118.27282 | 38015 ft | 414 kts | 299° |
| 2026-05-05 00:29 | 34.78779 | -118.30033 | 37982 ft | 418 kts | 299° |
| 2026-05-05 00:30 | 34.82451 | -118.35606 | 38000 ft | 426 kts | 299° |
| 2026-05-05 00:30 | 34.86196 | -118.41294 | 37995 ft | 434 kts | 300° |
| 2026-05-05 00:31 | 34.90009 | -118.47086 | 38002 ft | 442 kts | 300° |
| 2026-05-05 00:31 | 34.93853 | -118.52934 | 38007 ft | 448 kts | 300° |
| 2026-05-05 00:32 | 34.97770 | -118.58900 | 37995 ft | 452 kts | 300° |
| 2026-05-05 00:32 | 35.01712 | -118.64913 | 37997 ft | 454 kts | 300° |
| 2026-05-05 00:33 | 35.05658 | -118.70943 | 38001 ft | 455 kts | 300° |
| 2026-05-05 00:33 | 35.09609 | -118.76995 | 37998 ft | 456 kts | 300° |
| 2026-05-05 00:34 | 35.13534 | -118.83018 | 37989 ft | 456 kts | 300° |
| 2026-05-05 00:34 | 35.17482 | -118.89085 | 37982 ft | 455 kts | 300° |
| 2026-05-05 00:35 | 35.21414 | -118.95140 | 37986 ft | 454 kts | 300° |
| 2026-05-05 00:35 | 35.25336 | -119.01191 | 37983 ft | 454 kts | 300° |
| 2026-05-05 00:36 | 35.29249 | -119.07239 | 37985 ft | 453 kts | 300° |
| 2026-05-05 00:36 | 35.33168 | -119.13306 | 37983 ft | 453 kts | 300° |
| 2026-05-05 00:37 | 35.37082 | -119.19377 | 37984 ft | 453 kts | 300° |
| 2026-05-05 00:37 | 35.40988 | -119.25445 | 37987 ft | 454 kts | 300° |
| 2026-05-05 00:38 | 35.44897 | -119.31528 | 37989 ft | 454 kts | 300° |
| 2026-05-05 00:38 | 35.48777 | -119.37578 | 37993 ft | 454 kts | 300° |
| 2026-05-05 00:39 | 35.52683 | -119.43678 | 38004 ft | 455 kts | 300° |
| 2026-05-05 00:39 | 35.56781 | -119.49649 | 37994 ft | 465 kts | 310° |
| 2026-05-05 00:40 | 35.61805 | -119.54747 | 38003 ft | 469 kts | 313° |
| 2026-05-05 00:40 | 35.66873 | -119.59825 | 38011 ft | 470 kts | 313° |
| 2026-05-05 00:41 | 35.71909 | -119.64957 | 38011 ft | 470 kts | 313° |
| 2026-05-05 00:41 | 35.76901 | -119.70083 | 38016 ft | 470 kts | 313° |
| 2026-05-05 00:42 | 35.81932 | -119.75258 | 38015 ft | 471 kts | 313° |
| 2026-05-05 00:42 | 35.86956 | -119.80431 | 38014 ft | 471 kts | 313° |
| 2026-05-05 00:43 | 35.91957 | -119.85626 | 38004 ft | 465 kts | 311° |
| 2026-05-05 00:43 | 35.94303 | -119.88285 | 37998 ft | 450 kts | 309° |
| 2026-05-05 00:43 | 35.96532 | -119.90936 | 38003 ft | 442 kts | 308° |
| 2026-05-05 00:44 | 36.00164 | -119.95343 | 38027 ft | 440 kts | 308° |
| 2026-05-05 00:44 | 36.05258 | -120.01484 | 38031 ft | 440 kts | 309° |
| 2026-05-05 00:45 | 36.08960 | -120.05904 | 38019 ft | 443 kts | 309° |
| 2026-05-05 00:45 | 36.13420 | -120.11217 | 37616 ft | 450 kts | 310° |
| 2026-05-05 00:45 | 36.15684 | -120.13916 | 36967 ft | 452 kts | 310° |
| 2026-05-05 00:46 | 36.18679 | -120.17483 | 36197 ft | 449 kts | 310° |
| 2026-05-05 00:46 | 36.20170 | -120.19260 | 35833 ft | 449 kts | 310° |
| 2026-05-05 00:46 | 36.22423 | -120.21950 | 35217 ft | 450 kts | 311° |
| 2026-05-05 00:46 | 36.24680 | -120.24647 | 34634 ft | 450 kts | 311° |
| 2026-05-05 00:47 | 36.26934 | -120.27345 | 34066 ft | 450 kts | 311° |
| 2026-05-05 00:47 | 36.29159 | -120.30011 | 33388 ft | 450 kts | 312° |
| 2026-05-05 00:47 | 36.31411 | -120.32711 | 32725 ft | 450 kts | 313° |
| 2026-05-05 00:47 | 36.33660 | -120.35409 | 32083 ft | 449 kts | 313° |
| 2026-05-05 00:48 | 36.35904 | -120.38103 | 31440 ft | 449 kts | 314° |
| 2026-05-05 00:48 | 36.38147 | -120.40799 | 30818 ft | 448 kts | 314° |
| 2026-05-05 00:48 | 36.40388 | -120.43493 | 30207 ft | 447 kts | 314° |
| 2026-05-05 00:48 | 36.42622 | -120.46182 | 29492 ft | 446 kts | 314° |
| 2026-05-05 00:49 | 36.44842 | -120.48860 | 28772 ft | 444 kts | 315° |
| 2026-05-05 00:49 | 36.47053 | -120.51525 | 28226 ft | 440 kts | 315° |
| 2026-05-05 00:49 | 36.49233 | -120.54156 | 28081 ft | 437 kts | 315° |
| 2026-05-05 00:50 | 36.53546 | -120.59367 | 27984 ft | 432 kts | 315° |
| 2026-05-05 00:50 | 36.55743 | -120.61940 | 27463 ft | 435 kts | 318° |
| 2026-05-05 00:50 | 36.58005 | -120.64440 | 26870 ft | 434 kts | 319° |
| 2026-05-05 00:50 | 36.60281 | -120.66907 | 26269 ft | 433 kts | 320° |
| 2026-05-05 00:51 | 36.62553 | -120.69376 | 25670 ft | 432 kts | 320° |
| 2026-05-05 00:51 | 36.64810 | -120.71847 | 25102 ft | 431 kts | 320° |
| 2026-05-05 00:51 | 36.67052 | -120.74323 | 24527 ft | 430 kts | 320° |
| 2026-05-05 00:51 | 36.69287 | -120.76802 | 23966 ft | 429 kts | 320° |
| 2026-05-05 00:52 | 36.71509 | -120.79273 | 23378 ft | 427 kts | 320° |
| 2026-05-05 00:52 | 36.73718 | -120.81733 | 22720 ft | 424 kts | 320° |
| 2026-05-05 00:52 | 36.75913 | -120.84176 | 22199 ft | 420 kts | 320° |
| 2026-05-05 00:52 | 36.78051 | -120.86559 | 22046 ft | 405 kts | 320° |
| 2026-05-05 00:53 | 36.80121 | -120.88856 | 21560 ft | 401 kts | 320° |
| 2026-05-05 00:53 | 36.82193 | -120.91151 | 21103 ft | 396 kts | 320° |
| 2026-05-05 00:53 | 36.84243 | -120.93420 | 20644 ft | 392 kts | 320° |
| 2026-05-05 00:53 | 36.86276 | -120.95672 | 20194 ft | 388 kts | 320° |
| 2026-05-05 00:54 | 36.88285 | -120.97902 | 19752 ft | 384 kts | 320° |
| 2026-05-05 00:54 | 36.90276 | -121.00113 | 19304 ft | 381 kts | 320° |
| 2026-05-05 00:54 | 36.92245 | -121.02302 | 18880 ft | 377 kts | 320° |
| 2026-05-05 00:54 | 36.94193 | -121.04471 | 18454 ft | 374 kts | 320° |
| 2026-05-05 00:55 | 36.96125 | -121.06622 | 18122 ft | 367 kts | 320° |
| 2026-05-05 00:55 | 36.98028 | -121.08743 | 17542 ft | 367 kts | 320° |
| 2026-05-05 00:55 | 36.99909 | -121.10839 | 16989 ft | 367 kts | 320° |
| 2026-05-05 00:55 | 37.01817 | -121.12967 | 16420 ft | 367 kts | 320° |
| 2026-05-05 00:56 | 37.03722 | -121.15095 | 15879 ft | 367 kts | 320° |
| 2026-05-05 00:56 | 37.05626 | -121.17223 | 15309 ft | 366 kts | 320° |
| 2026-05-05 00:56 | 37.07504 | -121.19324 | 15091 ft | 356 kts | 320° |
| 2026-05-05 00:56 | 37.09322 | -121.21359 | 14990 ft | 343 kts | 320° |
| 2026-05-05 00:57 | 37.11067 | -121.23315 | 14961 ft | 330 kts | 320° |
| 2026-05-05 00:57 | 37.12746 | -121.25199 | 14778 ft | 321 kts | 320° |
| 2026-05-05 00:57 | 37.14417 | -121.27092 | 14290 ft | 324 kts | 319° |
| 2026-05-05 00:57 | 37.16081 | -121.29018 | 13764 ft | 328 kts | 319° |
| 2026-05-05 00:58 | 37.17767 | -121.30981 | 13148 ft | 333 kts | 319° |
| 2026-05-05 00:58 | 37.19477 | -121.32974 | 12515 ft | 338 kts | 319° |
| 2026-05-05 00:58 | 37.21207 | -121.34990 | 11901 ft | 341 kts | 319° |
| 2026-05-05 00:58 | 37.22956 | -121.37029 | 11302 ft | 344 kts | 318° |
| 2026-05-05 00:59 | 37.24717 | -121.39082 | 10722 ft | 346 kts | 318° |
| 2026-05-05 00:59 | 37.26436 | -121.41087 | 10466 ft | 333 kts | 318° |
| 2026-05-05 00:59 | 37.28083 | -121.43010 | 10366 ft | 312 kts | 318° |
| 2026-05-05 00:59 | 37.29634 | -121.44821 | 10361 ft | 297 kts | 318° |
| 2026-05-05 01:00 | 37.31123 | -121.46558 | 10255 ft | 288 kts | 318° |
| 2026-05-05 01:00 | 37.32592 | -121.48272 | 9929 ft | 288 kts | 318° |
| 2026-05-05 01:00 | 37.34062 | -121.49990 | 9569 ft | 288 kts | 318° |
| 2026-05-05 01:00 | 37.35533 | -121.51710 | 9161 ft | 290 kts | 317° |
| 2026-05-05 01:01 | 37.37005 | -121.53431 | 8965 ft | 283 kts | 317° |
| 2026-05-05 01:01 | 37.38409 | -121.55061 | 8933 ft | 275 kts | 318° |
| 2026-05-05 01:01 | 37.39815 | -121.56665 | 8576 ft | 282 kts | 318° |
| 2026-05-05 01:01 | 37.41270 | -121.58322 | 8268 ft | 281 kts | 318° |
| 2026-05-05 01:02 | 37.42717 | -121.59973 | 7994 ft | 279 kts | 318° |
| 2026-05-05 01:02 | 37.44138 | -121.61624 | 7709 ft | 277 kts | 314° |
| 2026-05-05 01:02 | 37.45332 | -121.63518 | 7439 ft | 275 kts | 304° |
| 2026-05-05 01:02 | 37.46412 | -121.65498 | 7166 ft | 273 kts | 304° |
| 2026-05-05 01:03 | 37.47483 | -121.67448 | 7008 ft | 266 kts | 304° |
| 2026-05-05 01:03 | 37.48527 | -121.69327 | 6879 ft | 260 kts | 304° |
| 2026-05-05 01:03 | 37.49556 | -121.71154 | 6658 ft | 257 kts | 304° |
| 2026-05-05 01:03 | 37.50592 | -121.72979 | 6458 ft | 255 kts | 304° |
| 2026-05-05 01:04 | 37.51622 | -121.74790 | 6246 ft | 252 kts | 304° |
| 2026-05-05 01:04 | 37.53593 | -121.78242 | 6145 ft | 233 kts | 304° |
| 2026-05-05 01:04 | 37.54506 | -121.79906 | 5965 ft | 229 kts | 295° |
| 2026-05-05 01:05 | 37.54700 | -121.81803 | 5716 ft | 217 kts | 254° |
| 2026-05-05 01:05 | 37.54316 | -121.83637 | 5471 ft | 220 kts | 262° |
| 2026-05-05 01:05 | 37.54358 | -121.85566 | 5230 ft | 220 kts | 274° |
| 2026-05-05 01:05 | 37.54502 | -121.87476 | 5013 ft | 216 kts | 273° |
| 2026-05-05 01:06 | 37.54662 | -121.89303 | 4958 ft | 206 kts | 274° |
| 2026-05-05 01:06 | 37.54821 | -121.91077 | 4971 ft | 203 kts | 274° |
| 2026-05-05 01:06 | 37.54993 | -121.92830 | 4967 ft | 205 kts | 275° |
| 2026-05-05 01:06 | 37.55185 | -121.94641 | 4765 ft | 212 kts | 276° |
| 2026-05-05 01:07 | 37.55388 | -121.96464 | 4556 ft | 207 kts | 276° |
| 2026-05-05 01:07 | 37.55590 | -121.98238 | 4420 ft | 202 kts | 276° |
| 2026-05-05 01:07 | 37.55975 | -121.99925 | 4319 ft | 203 kts | 301° |
| 2026-05-05 01:07 | 37.56893 | -122.01248 | 4123 ft | 199 kts | 311° |
| 2026-05-05 01:08 | 37.57725 | -122.02595 | 3865 ft | 191 kts | 303° |
| 2026-05-05 01:08 | 37.58522 | -122.03901 | 3616 ft | 184 kts | 307° |
| 2026-05-05 01:08 | 37.59273 | -122.05128 | 3457 ft | 173 kts | 304° |
| 2026-05-05 01:08 | 37.59988 | -122.06298 | 3289 ft | 165 kts | 307° |
| 2026-05-05 01:09 | 37.60738 | -122.07389 | 3113 ft | 168 kts | 309° |
| 2026-05-05 01:09 | 37.61526 | -122.08469 | 2948 ft | 164 kts | 310° |
| 2026-05-05 01:09 | 37.62271 | -122.09533 | 2682 ft | 161 kts | 308° |
| 2026-05-05 01:09 | 37.62951 | -122.10614 | 2469 ft | 152 kts | 304° |
| 2026-05-05 01:10 | 37.63550 | -122.11637 | 2223 ft | 139 kts | 303° |
| 2026-05-05 01:10 | 37.64131 | -122.12594 | 1923 ft | 137 kts | 306° |
| 2026-05-05 01:10 | 37.64752 | -122.13525 | 1758 ft | 140 kts | 307° |
| 2026-05-05 01:10 | 37.65423 | -122.14451 | 1588 ft | 145 kts | 309° |
| 2026-05-05 01:11 | 37.66097 | -122.15399 | 1461 ft | 143 kts | 308° |
| 2026-05-05 01:11 | 37.66748 | -122.16337 | 1216 ft | 141 kts | 306° |
| 2026-05-05 01:11 | 37.67366 | -122.17274 | 974 ft | 140 kts | 306° |
| 2026-05-05 01:11 | 37.67983 | -122.18232 | 735 ft | 141 kts | 308° |
| 2026-05-05 01:12 | 37.68642 | -122.19174 | 530 ft | 145 kts | 308° |
| 2026-05-05 01:12 | 37.69312 | -122.20130 | 329 ft | 146 kts | 306° |
| 2026-05-05 01:12 | 37.69935 | -122.21118 | 112 ft | 142 kts | 307° |
| 2026-05-05 01:12 | 37.70552 | -122.22048 | 18 ft | 130 kts | 311° |
| 2026-05-05 01:13 | 37.71086 | -122.22836 | 10 ft | 106 kts | 309° |
| 2026-05-05 01:13 | 37.71449 | -122.23375 | 8 ft | 56 kts | 312° |
| 2026-05-05 01:13 | 37.71693 | -122.23739 | 7 ft | 50 kts | 310° |
| 2026-05-05 01:13 | 37.71888 | -122.24025 | 10 ft | 26 kts | 319° |
| 2026-05-05 01:14 | 37.71995 | -122.23967 | 8 ft | 15 kts | 65° |
| 2026-05-05 01:14 | 37.71952 | -122.23861 | 8 ft | 15 kts | 132° |
| 2026-05-05 01:14 | 37.71884 | -122.23743 | 10 ft | 18 kts | 120° |
| 2026-05-05 01:14 | 37.71810 | -122.23586 | 9 ft | 25 kts | 119° |